createdAt,value
2017-06-08T00:00:07.546Z,57.97
2017-06-08T00:04:07.780Z,58.53
2017-06-08T00:07:08.012Z,58.85
2017-06-08T00:08:07.745Z,58.77
2017-06-08T00:12:08.276Z,58.98
2017-06-08T00:14:08.229Z,58.98
2017-06-08T00:15:07.588Z,59.00
2017-06-08T00:21:08.165Z,58.88
2017-06-08T00:22:07.840Z,58.90
2017-06-08T00:23:07.574Z,59.31
2017-06-08T00:24:08.127Z,59.57
2017-06-08T00:25:07.758Z,59.84
2017-06-08T00:26:08.443Z,59.53
2017-06-08T00:27:08.101Z,59.35
2017-06-08T00:28:07.778Z,59.13
2017-06-08T00:29:08.411Z,59.23
2017-06-08T00:30:18.158Z,58.86
2017-06-08T00:31:07.810Z,59.19
2017-06-08T00:32:09.873Z,59.18
2017-06-08T00:33:08.092Z,59.08
2017-06-08T00:34:08.935Z,59.02
2017-06-08T00:35:08.687Z,59.39
2017-06-08T00:36:09.478Z,59.30
2017-06-08T00:37:08.942Z,59.13
2017-06-08T00:38:08.601Z,59.04
2017-06-08T00:39:09.562Z,59.04
2017-06-08T00:40:07.760Z,59.08
2017-06-08T00:41:08.559Z,59.01
2017-06-08T00:42:09.611Z,59.20
2017-06-08T00:43:07.805Z,59.11
2017-06-08T00:44:07.542Z,59.25
2017-06-08T00:45:09.340Z,59.44
2017-06-08T00:46:08.967Z,59.08
2017-06-08T00:47:07.449Z,58.92
2017-06-08T00:48:09.784Z,59.07
2017-06-08T00:49:07.784Z,59.21
2017-06-08T00:50:08.387Z,59.21
2017-06-08T00:51:09.569Z,59.29
2017-06-08T00:52:07.736Z,59.43
2017-06-08T00:53:09.903Z,59.64
2017-06-08T00:54:09.578Z,59.54
2017-06-08T00:55:08.895Z,59.74
2017-06-08T00:56:08.402Z,59.81
2017-06-08T00:57:08.181Z,59.90
2017-06-08T00:58:07.725Z,60.15
2017-06-08T00:59:10.221Z,60.29
2017-06-08T01:00:09.205Z,60.34
2017-06-08T01:01:07.707Z,60.72
2017-06-08T01:02:08.411Z,60.91
2017-06-08T01:03:09.211Z,60.65
2017-06-08T01:04:08.905Z,60.71
2017-06-08T01:05:09.543Z,60.61
2017-06-08T01:06:09.660Z,60.61
2017-06-08T01:07:08.833Z,60.58
2017-06-08T01:08:08.366Z,60.74
2017-06-08T01:09:07.999Z,60.80
2017-06-08T01:10:07.715Z,61.12
2017-06-08T01:11:09.850Z,61.12
2017-06-08T01:12:09.224Z,61.11
2017-06-08T01:13:08.850Z,61.27
2017-06-08T01:14:08.397Z,61.45
2017-06-08T01:15:08.176Z,61.45
2017-06-08T01:16:07.820Z,61.16
2017-06-08T01:17:07.606Z,60.91
2017-06-08T01:18:08.241Z,60.84
2017-06-08T01:19:09.109Z,60.67
2017-06-08T01:20:07.598Z,60.55
2017-06-08T01:21:08.408Z,60.65
2017-06-08T01:22:07.985Z,60.76
2017-06-08T01:23:07.574Z,60.71
2017-06-08T01:24:08.297Z,60.49
2017-06-08T01:25:07.931Z,60.45
2017-06-08T01:26:07.560Z,60.79
2017-06-08T01:27:08.288Z,60.65
2017-06-08T01:28:07.904Z,60.68
2017-06-08T01:29:07.553Z,60.75
2017-06-08T01:30:08.275Z,60.95
2017-06-08T01:31:09.008Z,61.01
2017-06-08T01:32:07.595Z,61.20
2017-06-08T01:33:08.194Z,61.35
2017-06-08T01:34:07.854Z,61.51
2017-06-08T01:35:07.521Z,61.76
2017-06-08T01:36:08.169Z,62.03
2017-06-08T01:37:07.878Z,61.59
2017-06-08T01:38:07.557Z,61.64
2017-06-08T01:39:08.185Z,61.39
2017-06-08T01:40:07.851Z,61.44
2017-06-08T01:41:07.453Z,61.15
2017-06-08T01:42:08.195Z,60.87
2017-06-08T01:43:07.820Z,60.67
2017-06-08T01:44:07.463Z,60.58
2017-06-08T01:45:08.175Z,60.62
2017-06-08T01:46:07.842Z,60.48
2017-06-08T01:47:07.530Z,60.60
2017-06-08T01:48:08.163Z,60.57
2017-06-08T01:49:07.803Z,60.39
2017-06-08T01:50:07.487Z,60.20
2017-06-08T01:51:08.210Z,60.33
2017-06-08T01:52:07.873Z,60.79
2017-06-08T01:53:07.487Z,60.98
2017-06-08T01:54:08.327Z,60.83
2017-06-08T01:55:07.761Z,60.73
2017-06-08T01:56:08.426Z,60.86
2017-06-08T01:57:08.109Z,60.93
2017-06-08T01:58:08.740Z,61.00
2017-06-08T01:59:08.412Z,60.98
2017-06-08T02:00:08.036Z,61.12
2017-06-08T02:01:07.747Z,61.20
2017-06-08T02:02:15.930Z,61.25
2017-06-08T02:03:08.039Z,61.35
2017-06-08T02:04:07.673Z,61.30
2017-06-08T02:05:09.615Z,61.08
2017-06-08T02:06:08.112Z,61.26
2017-06-08T02:07:08.769Z,61.51
2017-06-08T02:08:08.344Z,61.50
2017-06-08T02:09:08.072Z,61.84
2017-06-08T02:10:07.670Z,61.76
2017-06-08T02:11:11.616Z,61.81
2017-06-08T02:12:08.021Z,62.03
2017-06-08T02:14:08.265Z,62.11
2017-06-08T02:15:07.892Z,61.97
2017-06-08T02:16:07.612Z,61.93
2017-06-08T02:17:08.328Z,61.79
2017-06-08T02:18:08.081Z,61.77
2017-06-08T02:21:08.714Z,61.89
2017-06-08T02:22:09.604Z,61.94
2017-06-08T02:23:07.944Z,61.88
2017-06-08T02:24:07.588Z,61.98
2017-06-08T02:25:08.406Z,61.96
2017-06-08T02:26:09.289Z,61.97
2017-06-08T02:27:08.650Z,61.97
2017-06-08T02:29:08.071Z,62.03
2017-06-08T02:30:08.250Z,62.38
2017-06-08T02:34:08.826Z,62.76
2017-06-08T02:35:08.404Z,62.95
2017-06-08T02:36:09.375Z,63.45
2017-06-08T02:37:08.787Z,64.01
2017-06-08T02:38:08.318Z,63.92
2017-06-08T02:39:09.274Z,63.89
2017-06-08T02:40:08.677Z,63.48
2017-06-08T02:41:08.296Z,63.17
2017-06-08T02:42:09.109Z,63.01
2017-06-08T02:43:07.594Z,62.91
2017-06-08T02:44:09.636Z,62.49
2017-06-08T02:45:09.038Z,62.79
2017-06-08T02:46:07.561Z,62.69
2017-06-08T02:47:08.200Z,62.40
2017-06-08T02:48:09.058Z,62.60
2017-06-08T02:49:07.602Z,62.63
2017-06-08T02:50:09.735Z,62.83
2017-06-08T02:51:09.037Z,62.77
2017-06-08T02:52:08.626Z,62.90
2017-06-08T02:53:08.186Z,62.72
2017-06-08T02:54:07.895Z,62.35
2017-06-08T02:55:07.627Z,62.44
2017-06-08T02:56:08.270Z,62.57
2017-06-08T02:57:07.852Z,62.84
2017-06-08T02:59:07.956Z,62.71
2017-06-08T03:00:07.726Z,62.78
2017-06-08T03:01:08.433Z,62.52
2017-06-08T03:02:09.264Z,62.76
2017-06-08T03:03:07.665Z,62.51
2017-06-08T03:04:08.336Z,62.44
2017-06-08T03:05:08.047Z,62.47
2017-06-08T03:06:07.709Z,62.32
2017-06-08T03:07:07.446Z,62.39
2017-06-08T03:08:08.076Z,62.52
2017-06-08T03:09:07.778Z,62.74
2017-06-08T03:10:08.394Z,62.81
2017-06-08T03:12:08.265Z,63.18
2017-06-08T03:13:08.381Z,63.27
2017-06-08T03:14:09.252Z,63.34
2017-06-08T03:15:08.740Z,63.14
2017-06-08T03:16:08.491Z,63.21
2017-06-08T03:17:08.103Z,63.22
2017-06-08T03:18:09.084Z,63.42
2017-06-08T03:20:07.678Z,63.37
2017-06-08T03:21:09.353Z,63.21
2017-06-08T03:22:08.864Z,63.28
2017-06-08T03:23:07.422Z,63.09
2017-06-08T03:24:08.053Z,63.19
2017-06-08T03:25:08.812Z,62.89
2017-06-08T03:26:13.896Z,63.18
2017-06-08T03:27:09.435Z,63.18
2017-06-08T03:28:07.766Z,62.97
2017-06-08T03:29:08.504Z,63.22
2017-06-08T03:30:08.088Z,63.22
2017-06-08T03:31:13.120Z,63.20
2017-06-08T03:32:08.409Z,62.99
2017-06-08T03:33:08.037Z,63.14
2017-06-08T03:34:08.744Z,63.27
2017-06-08T03:35:08.355Z,63.14
2017-06-08T03:36:08.032Z,62.80
2017-06-08T03:37:07.742Z,62.86
2017-06-08T03:38:08.339Z,62.87
2017-06-08T03:39:07.911Z,62.74
2017-06-08T03:40:07.605Z,62.90
2017-06-08T03:41:09.454Z,63.10
2017-06-08T03:42:07.880Z,63.12
2017-06-08T03:43:07.605Z,63.21
2017-06-08T03:44:08.194Z,63.29
2017-06-08T03:45:07.868Z,63.42
2017-06-08T03:47:07.670Z,63.05
2017-06-08T03:48:09.450Z,63.32
2017-06-08T03:50:07.649Z,63.34
2017-06-08T03:51:09.791Z,63.59
2017-06-08T03:52:07.974Z,63.28
2017-06-08T03:53:07.709Z,63.29
2017-06-08T03:54:08.282Z,63.56
2017-06-08T03:55:07.961Z,63.41
2017-06-08T03:56:07.588Z,63.32
2017-06-08T03:57:08.263Z,63.41
2017-06-08T03:58:07.924Z,64.00
2017-06-08T03:59:07.530Z,63.94
2017-06-08T04:00:08.337Z,64.20
2017-06-08T04:02:07.570Z,64.80
2017-06-08T04:04:07.569Z,64.43
2017-06-08T04:06:07.886Z,64.60
2017-06-08T04:09:07.900Z,64.39
2017-06-08T04:10:08.044Z,64.12
2017-06-08T04:12:07.813Z,64.57
2017-06-08T04:14:07.586Z,64.58
2017-06-08T04:15:08.327Z,64.51
2017-06-08T04:18:08.197Z,64.95
2017-06-08T04:21:08.162Z,64.73
2017-06-08T04:22:08.905Z,65.05
2017-06-08T04:23:08.497Z,64.65
2017-06-08T04:24:09.378Z,65.67
2017-06-08T04:25:10.601Z,65.60
2017-06-08T04:26:09.433Z,65.32
2017-06-08T04:27:08.933Z,65.31
2017-06-08T04:28:08.566Z,65.35
2017-06-08T04:29:09.394Z,65.58
2017-06-08T04:30:08.800Z,65.02
2017-06-08T04:31:08.632Z,64.94
2017-06-08T04:34:14.473Z,65.91
2017-06-08T04:35:07.463Z,66.01
2017-06-08T04:41:07.879Z,65.60
2017-06-08T04:42:07.506Z,65.45
2017-06-08T04:43:09.429Z,65.81
2017-06-08T04:44:08.947Z,65.96
2017-06-08T04:45:08.588Z,65.71
2017-06-08T04:46:08.221Z,65.63
2017-06-08T04:47:07.862Z,65.95
2017-06-08T04:48:07.535Z,65.98
2017-06-08T04:49:09.383Z,65.75
2017-06-08T04:50:07.808Z,65.78
2017-06-08T04:51:07.563Z,66.26
2017-06-08T04:52:08.160Z,65.63
2017-06-08T04:53:08.376Z,66.09
2017-06-08T04:54:08.018Z,66.38
2017-06-08T04:55:08.800Z,66.68
2017-06-08T04:56:08.419Z,66.32
2017-06-08T04:57:08.074Z,65.95
2017-06-08T04:58:07.717Z,65.91
2017-06-08T04:59:08.336Z,66.74
2017-06-08T05:00:08.053Z,66.94
2017-06-08T05:01:08.740Z,66.91
2017-06-08T05:02:08.363Z,66.83
2017-06-08T05:03:07.995Z,66.19
2017-06-08T05:04:07.674Z,65.47
2017-06-08T05:05:08.311Z,65.72
2017-06-08T05:06:09.185Z,65.86
2017-06-08T05:07:07.691Z,65.97
2017-06-08T05:08:08.301Z,65.50
2017-06-08T05:09:08.010Z,65.91
2017-06-08T05:10:08.669Z,66.45
2017-06-08T05:11:08.358Z,66.71
2017-06-08T05:12:07.922Z,66.95
2017-06-08T05:13:08.143Z,66.67
2017-06-08T05:18:08.616Z,67.08
2017-06-08T05:19:08.125Z,66.78
2017-06-08T05:20:07.808Z,66.92
2017-06-08T05:24:08.418Z,67.96
2017-06-08T05:25:07.999Z,68.43
2017-06-08T05:26:07.688Z,68.04
2017-06-08T05:27:08.343Z,67.65
2017-06-08T05:30:08.213Z,68.08
2017-06-08T05:34:07.463Z,67.26
2017-06-08T05:37:08.634Z,67.51
2017-06-08T05:39:07.479Z,68.09
2017-06-08T05:40:08.114Z,67.87
2017-06-08T05:49:07.563Z,67.10
2017-06-08T05:53:07.777Z,66.45
2017-06-08T05:54:08.430Z,66.64
2017-06-08T05:56:09.570Z,65.90
2017-06-08T05:57:07.863Z,65.59
2017-06-08T05:58:08.629Z,65.88
2017-06-08T05:59:09.503Z,65.97
2017-06-08T06:00:07.835Z,66.04
2017-06-08T06:01:07.521Z,65.55
2017-06-08T06:02:09.306Z,65.49
2017-06-08T06:03:08.918Z,65.40
2017-06-08T06:04:07.505Z,64.83
2017-06-08T06:05:09.231Z,64.64
2017-06-08T06:06:08.872Z,64.85
2017-06-08T06:07:07.404Z,64.64
2017-06-08T06:08:09.150Z,64.81
2017-06-08T06:09:08.791Z,65.18
2017-06-08T06:10:09.577Z,65.76
2017-06-08T06:11:09.083Z,65.56
2017-06-08T06:12:07.730Z,65.08
2017-06-08T06:13:08.353Z,65.96
2017-06-08T06:15:09.538Z,65.65
2017-06-08T06:16:07.823Z,64.97
2017-06-08T06:17:08.612Z,66.16
2017-06-08T06:18:08.299Z,66.19
2017-06-08T06:19:08.001Z,65.84
2017-06-08T06:20:07.641Z,65.74
2017-06-08T06:24:08.391Z,65.64
2017-06-08T06:25:07.944Z,65.20
2017-06-08T06:26:07.655Z,65.93
2017-06-08T06:27:08.290Z,65.42
2017-06-08T06:28:09.042Z,65.25
2017-06-08T06:29:08.729Z,65.42
2017-06-08T06:30:09.596Z,64.84
2017-06-08T06:31:07.970Z,64.69
2017-06-08T06:32:08.690Z,64.39
2017-06-08T06:33:09.597Z,64.51
2017-06-08T06:34:08.037Z,64.42
2017-06-08T06:35:08.726Z,64.98
2017-06-08T06:36:08.307Z,64.77
2017-06-08T06:37:09.014Z,64.38
2017-06-08T06:38:07.589Z,64.28
2017-06-08T06:39:09.538Z,63.82
2017-06-08T06:40:07.944Z,63.63
2017-06-08T06:41:08.730Z,63.44
2017-06-08T06:42:08.246Z,63.34
2017-06-08T06:43:09.033Z,63.34
2017-06-08T06:44:07.582Z,63.00
2017-06-08T06:45:09.354Z,63.21
2017-06-08T06:46:09.264Z,63.06
2017-06-08T06:47:08.632Z,63.27
2017-06-08T06:48:08.566Z,63.02
2017-06-08T06:49:09.307Z,62.35
2017-06-08T06:50:07.776Z,62.26
2017-06-08T06:51:07.447Z,62.05
2017-06-08T06:52:08.102Z,62.07
2017-06-08T06:53:07.816Z,62.22
2017-06-08T06:54:07.381Z,61.44
2017-06-08T06:55:08.093Z,60.91
2017-06-08T06:56:07.699Z,60.84
2017-06-08T06:57:08.354Z,60.85
2017-06-08T06:58:08.000Z,60.78
2017-06-08T06:59:08.787Z,60.77
2017-06-08T07:00:07.401Z,60.90
2017-06-08T07:01:09.188Z,60.78
2017-06-08T07:02:08.832Z,60.80
2017-06-08T07:03:09.561Z,60.81
2017-06-08T07:04:09.190Z,61.38
2017-06-08T07:05:08.781Z,61.08
2017-06-08T07:06:09.533Z,60.77
2017-06-08T07:07:07.978Z,60.21
2017-06-08T07:08:08.800Z,59.48
2017-06-08T07:09:09.431Z,58.87
2017-06-08T07:10:09.006Z,57.75
2017-06-08T07:11:08.685Z,57.57
2017-06-08T07:12:09.340Z,57.52
2017-06-08T07:14:07.778Z,57.89
2017-06-08T07:15:08.484Z,57.91
2017-06-08T07:16:08.067Z,57.98
2017-06-08T07:17:07.770Z,57.84
2017-06-08T07:18:07.486Z,58.01
2017-06-08T07:19:08.237Z,57.54
2017-06-08T07:20:08.929Z,56.83
2017-06-08T07:21:07.504Z,56.81
2017-06-08T07:22:08.300Z,56.80
2017-06-08T07:23:07.897Z,56.94
2017-06-08T07:24:07.623Z,57.82
2017-06-08T07:26:08.025Z,57.33
2017-06-08T07:27:07.555Z,57.10
2017-06-08T07:28:08.201Z,57.13
2017-06-08T07:29:07.952Z,57.14
2017-06-08T07:30:07.555Z,57.52
2017-06-08T07:31:08.256Z,57.61
2017-06-08T07:32:08.974Z,57.47
2017-06-08T07:33:07.523Z,57.13
2017-06-08T07:34:08.286Z,57.19
2017-06-08T07:35:07.805Z,56.62
2017-06-08T07:36:07.522Z,56.03
2017-06-08T07:37:08.156Z,55.51
2017-06-08T07:38:07.823Z,55.03
2017-06-08T07:39:07.600Z,54.70
2017-06-08T07:40:08.178Z,55.21
2017-06-08T07:41:07.806Z,55.51
2017-06-08T07:42:07.475Z,55.34
2017-06-08T07:43:08.118Z,55.38
2017-06-08T07:44:07.798Z,55.00
2017-06-08T07:45:07.430Z,54.98
2017-06-08T07:46:08.098Z,54.26
2017-06-08T07:47:07.753Z,54.41
2017-06-08T07:48:07.498Z,54.58
2017-06-08T07:51:07.478Z,53.15
2017-06-08T07:53:08.703Z,53.05
2017-06-08T07:55:08.231Z,53.65
2017-06-08T07:56:09.091Z,53.92
2017-06-08T07:57:07.572Z,53.38
2017-06-08T07:58:09.459Z,53.59
2017-06-08T07:59:09.081Z,53.82
2017-06-08T08:00:07.615Z,53.64
2017-06-08T08:01:08.327Z,53.45
2017-06-08T08:02:08.003Z,53.35
2017-06-08T08:03:07.586Z,51.96
2017-06-08T08:04:08.265Z,52.47
2017-06-08T08:05:08.026Z,52.19
2017-06-08T08:06:07.815Z,52.18
2017-06-08T08:07:08.384Z,52.22
2017-06-08T08:08:08.202Z,52.27
2017-06-08T08:09:07.696Z,51.86
2017-06-08T08:10:07.471Z,51.96
2017-06-08T08:11:08.094Z,52.32
2017-06-08T08:12:08.257Z,51.98
2017-06-08T08:13:07.420Z,52.31
2017-06-08T08:14:08.161Z,52.32
2017-06-08T08:15:07.839Z,52.61
2017-06-08T08:16:07.532Z,53.50
2017-06-08T08:17:09.485Z,53.93
2017-06-08T08:18:09.161Z,54.01
2017-06-08T08:19:07.795Z,54.39
2017-06-08T08:20:08.518Z,53.27
2017-06-08T08:21:09.360Z,53.61
2017-06-08T08:22:08.983Z,53.67
2017-06-08T08:23:08.598Z,51.39
2017-06-08T08:24:09.218Z,51.41
2017-06-08T08:25:07.805Z,50.82
2017-06-08T08:26:08.580Z,50.15
2017-06-08T08:27:09.236Z,50.01
2017-06-08T08:28:07.883Z,49.94
2017-06-08T08:29:08.495Z,49.90
2017-06-08T08:30:08.049Z,50.32
2017-06-08T08:31:07.746Z,50.87
2017-06-08T08:32:07.387Z,51.38
2017-06-08T08:33:09.199Z,51.07
2017-06-08T08:34:08.892Z,50.89
2017-06-08T08:35:07.440Z,51.21
2017-06-08T08:36:09.233Z,50.60
2017-06-08T08:37:07.736Z,50.56
2017-06-08T08:38:08.532Z,50.25
2017-06-08T08:39:08.058Z,50.49
2017-06-08T08:40:07.806Z,50.81
2017-06-08T08:41:07.430Z,51.01
2017-06-08T08:42:09.156Z,51.26
2017-06-08T08:43:07.746Z,50.75
2017-06-08T08:44:09.533Z,48.96
2017-06-08T08:45:08.057Z,49.42
2017-06-08T08:46:07.688Z,50.09
2017-06-08T08:47:08.478Z,50.01
2017-06-08T08:48:09.156Z,49.77
2017-06-08T08:49:08.816Z,49.90
2017-06-08T08:50:08.408Z,49.83
2017-06-08T08:51:08.038Z,49.76
2017-06-08T08:52:07.711Z,49.72
2017-06-08T08:53:08.355Z,50.10
2017-06-08T08:54:08.229Z,50.26
2017-06-08T08:55:07.705Z,50.32
2017-06-08T08:56:08.306Z,50.36
2017-06-08T08:57:07.986Z,50.96
2017-06-08T08:58:08.712Z,51.16
2017-06-08T08:59:09.408Z,51.07
2017-06-08T09:00:07.967Z,50.07
2017-06-08T09:01:08.639Z,49.75
2017-06-08T09:02:08.263Z,51.56
2017-06-08T09:03:07.961Z,51.50
2017-06-08T09:04:07.637Z,50.37
2017-06-08T09:05:09.495Z,50.49
2017-06-08T09:06:09.087Z,51.52
2017-06-08T09:07:08.787Z,51.79
2017-06-08T09:08:09.414Z,52.24
2017-06-08T09:09:07.972Z,51.26
2017-06-08T09:10:07.706Z,50.33
2017-06-08T09:11:09.491Z,50.26
2017-06-08T09:12:09.100Z,50.85
2017-06-08T09:13:07.653Z,50.62
2017-06-08T09:14:08.366Z,51.11
2017-06-08T09:15:07.974Z,51.27
2017-06-08T09:16:07.728Z,51.31
2017-06-08T09:17:08.411Z,52.22
2017-06-08T09:18:08.174Z,47.81
2017-06-08T09:19:07.758Z,46.09
2017-06-08T09:20:07.428Z,46.46
2017-06-08T09:21:08.029Z,47.42
2017-06-08T09:22:07.788Z,47.92
2017-06-08T09:23:08.384Z,48.49
2017-06-08T09:24:08.010Z,48.10
2017-06-08T09:25:07.697Z,48.23
2017-06-08T09:26:08.367Z,48.18
2017-06-08T09:27:08.142Z,48.09
2017-06-08T09:28:07.799Z,47.75
2017-06-08T09:29:07.474Z,46.67
2017-06-08T09:30:08.112Z,47.27
2017-06-08T09:31:07.806Z,48.29
2017-06-08T09:32:07.492Z,48.32
2017-06-08T09:33:08.014Z,49.36
2017-06-08T09:34:07.710Z,50.14
2017-06-08T09:35:07.405Z,50.75
2017-06-08T09:36:08.077Z,50.82
2017-06-08T09:37:07.808Z,51.62
2017-06-08T09:38:08.448Z,50.71
2017-06-08T09:39:08.116Z,48.84
2017-06-08T09:40:07.680Z,46.87
2017-06-08T09:41:08.399Z,48.02
2017-06-08T09:42:08.133Z,48.40
2017-06-08T09:43:07.733Z,49.56
2017-06-08T09:44:07.418Z,48.99
2017-06-08T09:45:08.175Z,47.45
2017-06-08T09:46:07.754Z,47.62
2017-06-08T09:47:07.589Z,48.21
2017-06-08T09:48:07.856Z,46.65
2017-06-08T09:49:07.465Z,44.19
2017-06-08T09:51:10.209Z,41.74
2017-06-08T10:13:07.697Z,45.45
2017-06-08T10:14:09.520Z,45.27
2017-06-08T10:15:07.692Z,42.86
2017-06-08T10:16:08.365Z,43.03
2017-06-08T10:18:07.501Z,42.99
2017-06-08T10:19:08.098Z,43.46
2017-06-08T10:20:08.855Z,44.03
2017-06-08T10:45:13.026Z,37.89
2017-06-08T11:06:08.469Z,39.87
2017-06-08T11:07:08.281Z,40.19
2017-06-08T11:08:14.482Z,44.70
2017-06-08T11:10:08.698Z,43.48
2017-06-08T11:11:15.775Z,45.60
2017-06-08T11:12:09.131Z,45.58
2017-06-08T11:13:07.615Z,44.88
2017-06-08T11:14:09.378Z,38.98
2017-06-08T11:15:07.939Z,40.07
2017-06-08T11:16:08.656Z,40.33
2017-06-08T11:17:09.342Z,40.30
2017-06-08T11:19:07.811Z,42.51
2017-06-08T11:19:11.991Z,40.66
2017-06-08T11:20:09.439Z,42.79
2017-06-08T11:21:09.193Z,44.78
2017-06-08T11:22:07.713Z,40.20
2017-06-08T11:23:08.392Z,40.27
2017-06-08T11:24:09.072Z,41.64
2017-06-08T16:06:08.955Z,20.56
2017-06-08T16:07:07.438Z,20.79
2017-06-08T16:08:08.100Z,21.18
2017-06-08T16:09:08.844Z,21.19
2017-06-08T16:10:09.482Z,21.35
2017-06-08T16:11:09.151Z,20.56
2017-06-08T16:12:08.806Z,20.20
2017-06-08T16:13:09.453Z,21.44
2017-06-08T16:14:09.117Z,23.68
2017-06-08T16:15:08.741Z,24.04
2017-06-08T16:16:08.392Z,22.51
2017-06-08T16:17:09.069Z,24.31
2017-06-08T16:18:08.878Z,21.93
2017-06-08T16:19:08.504Z,20.60
2017-06-08T16:20:08.114Z,22.03
2017-06-08T16:21:08.847Z,21.23
2017-06-08T16:22:08.442Z,22.62
2017-06-08T16:23:09.147Z,24.28
2017-06-08T16:24:08.894Z,22.25
2017-06-08T16:25:09.479Z,20.62
2017-06-08T16:26:09.174Z,20.62
2017-06-08T16:27:07.724Z,21.61
2017-06-08T16:28:09.483Z,22.51
2017-06-08T16:29:09.096Z,23.49
2017-06-08T16:30:08.784Z,23.26
2017-06-08T16:31:08.455Z,22.70
2017-06-08T16:32:09.130Z,23.00
2017-06-08T16:33:08.776Z,23.43
2017-06-08T16:34:09.443Z,22.21
2017-06-08T16:35:09.048Z,23.30
2017-06-08T16:36:07.673Z,22.73
2017-06-08T16:37:09.381Z,24.77
2017-06-08T16:38:08.551Z,23.79
2017-06-08T16:39:08.967Z,23.61
2017-06-08T16:40:10.299Z,23.61
2017-06-08T16:41:09.826Z,24.31
2017-06-08T16:42:08.952Z,23.58
2017-06-08T16:43:08.264Z,24.34
2017-06-08T16:44:09.023Z,24.28
2017-06-08T16:45:07.622Z,25.63
2017-06-08T16:46:09.363Z,25.85
2017-06-08T16:47:09.098Z,23.26
2017-06-08T16:48:14.241Z,24.35
2017-06-08T16:49:09.340Z,25.28
2017-06-08T16:50:09.041Z,27.08
2017-06-08T16:51:08.658Z,24.88
2017-06-08T16:52:09.348Z,25.58
2017-06-08T16:53:08.974Z,25.76
2017-06-08T16:54:08.600Z,26.89
2017-06-08T16:55:09.202Z,26.99
2017-06-08T16:56:08.911Z,24.99
2017-06-08T16:57:07.498Z,25.41
2017-06-08T16:58:09.224Z,25.47
2017-06-08T16:59:08.830Z,26.39
2017-06-08T17:00:08.488Z,26.92
2017-06-08T17:01:09.144Z,27.11
2017-06-08T17:02:08.764Z,28.05
2017-06-08T17:03:08.385Z,26.93
2017-06-08T17:04:09.070Z,27.18
2017-06-08T17:05:08.829Z,27.11
2017-06-08T17:06:09.428Z,27.56
2017-06-08T17:07:08.009Z,27.90
2017-06-08T17:08:07.707Z,30.09
2017-06-08T17:09:08.354Z,28.08
2017-06-08T17:10:07.965Z,28.56
2017-06-08T17:11:07.643Z,29.41
2017-06-08T17:12:08.244Z,30.18
2017-06-08T17:13:07.941Z,30.77
2017-06-08T17:14:07.619Z,30.47
2017-06-08T17:15:08.268Z,31.99
2017-06-08T17:16:07.942Z,32.14
2017-06-08T17:17:07.668Z,32.39
2017-06-08T17:18:07.415Z,32.63
2017-06-08T17:19:13.619Z,33.36
2017-06-08T17:20:07.701Z,33.17
2017-06-08T17:21:08.352Z,33.51
2017-06-08T17:22:08.676Z,34.04
2017-06-08T17:23:09.298Z,33.89
2017-06-08T17:24:07.809Z,34.22
2017-06-08T17:25:07.421Z,33.98
2017-06-08T17:26:08.093Z,34.37
2017-06-08T17:27:07.772Z,33.82
2017-06-08T17:28:07.462Z,33.85
2017-06-08T17:29:08.197Z,34.45
2017-06-08T17:30:07.732Z,33.25
2017-06-08T17:31:08.356Z,32.64
2017-06-08T17:32:07.514Z,32.97
2017-06-08T17:33:08.178Z,34.16
2017-06-08T17:34:08.006Z,34.39
2017-06-08T17:35:07.521Z,34.00
2017-06-08T17:36:08.217Z,34.32
2017-06-08T17:37:08.062Z,34.72
2017-06-08T17:38:07.623Z,35.64
2017-06-08T17:39:08.313Z,34.47
2017-06-08T17:40:07.927Z,35.98
2017-06-08T17:41:08.051Z,34.63
2017-06-08T17:42:13.788Z,34.80
2017-06-08T17:43:08.950Z,34.91
2017-06-08T17:44:07.580Z,35.83
2017-06-08T17:45:08.156Z,35.98
2017-06-08T17:46:07.779Z,35.60
2017-06-08T17:47:08.540Z,35.23
2017-06-08T17:48:08.070Z,35.14
2017-06-08T17:49:07.865Z,34.68
2017-06-08T17:50:07.393Z,36.41
2017-06-08T17:51:08.084Z,35.28
2017-06-08T17:52:07.955Z,36.15
2017-06-08T17:53:07.626Z,35.23
2017-06-08T17:54:08.395Z,36.23
2017-06-08T17:55:07.879Z,36.84
2017-06-08T17:56:07.595Z,36.40
2017-06-08T17:57:08.174Z,35.34
2017-06-08T17:58:07.864Z,35.63
2017-06-08T17:59:07.665Z,36.80
2017-06-08T18:00:08.177Z,36.37
2017-06-08T18:01:07.833Z,37.23
2017-06-08T18:02:07.502Z,37.57
2017-06-08T18:03:08.151Z,37.03
2017-06-08T18:04:08.876Z,36.52
2017-06-08T18:05:07.421Z,37.57
2017-06-08T18:06:08.148Z,37.08
2017-06-08T18:07:07.860Z,36.55
2017-06-08T18:08:08.006Z,36.73
2017-06-08T18:09:08.363Z,37.62
2017-06-08T18:10:08.002Z,37.13
2017-06-08T18:11:07.588Z,37.80
2017-06-08T18:12:08.243Z,36.87
2017-06-08T18:13:07.905Z,36.85
2017-06-08T18:14:07.590Z,36.85
2017-06-08T18:15:08.258Z,36.85
2017-06-08T18:16:07.871Z,37.32
2017-06-08T18:17:07.645Z,38.45
2017-06-08T18:18:09.410Z,39.54
2017-06-08T18:19:07.982Z,38.67
2017-06-08T18:20:07.620Z,37.72
2017-06-08T18:21:08.262Z,38.17
2017-06-08T18:22:07.940Z,38.19
2017-06-08T18:23:07.605Z,38.41
2017-06-08T18:24:08.330Z,38.01
2017-06-08T18:25:07.918Z,38.86
2017-06-08T18:26:07.556Z,38.32
2017-06-08T18:27:08.186Z,38.66
2017-06-08T18:28:08.984Z,38.42
2017-06-08T18:29:07.535Z,38.63
2017-06-08T18:30:09.334Z,38.62
2017-06-08T18:31:07.864Z,39.49
2017-06-08T18:32:08.625Z,39.61
2017-06-08T18:33:08.195Z,39.49
2017-06-08T18:34:07.841Z,39.07
2017-06-08T18:35:07.538Z,38.91
2017-06-08T18:36:08.630Z,39.77
2017-06-08T18:37:08.946Z,39.55
2017-06-08T18:38:08.557Z,39.18
2017-06-08T18:39:18.751Z,39.16
2017-06-08T18:40:07.846Z,39.59
2017-06-08T18:41:07.548Z,39.35
2017-06-08T18:42:08.162Z,39.35
2017-06-08T18:43:07.820Z,39.46
2017-06-08T18:44:07.553Z,39.92
2017-06-08T18:45:08.168Z,39.82
2017-06-08T18:46:07.837Z,39.68
2017-06-08T18:47:07.458Z,40.92
2017-06-08T18:48:08.101Z,40.64
2017-06-08T18:49:07.728Z,40.36
2017-06-08T18:50:07.397Z,41.14
2017-06-08T18:51:08.115Z,40.58
2017-06-08T18:52:07.736Z,40.46
2017-06-08T18:53:07.436Z,40.48
2017-06-08T18:54:08.140Z,40.55
2017-06-08T18:55:08.054Z,40.52
2017-06-08T18:56:07.515Z,40.41
2017-06-08T18:57:08.122Z,40.49
2017-06-08T18:58:07.774Z,41.29
2017-06-08T18:59:19.729Z,41.62
2017-06-08T19:00:08.046Z,40.67
2017-06-08T19:01:07.674Z,41.81
2017-06-08T19:02:08.325Z,41.22
2017-06-08T19:03:08.024Z,42.25
2017-06-08T19:04:07.656Z,42.15
2017-06-08T19:05:09.415Z,42.03
2017-06-08T19:06:07.978Z,42.31
2017-06-08T19:07:07.614Z,44.27
2017-06-08T19:08:08.295Z,43.54
2017-06-08T19:09:08.997Z,44.43
2017-06-08T19:10:07.607Z,43.31
2017-06-08T19:11:08.285Z,44.46
2017-06-08T19:12:07.865Z,44.31
2017-06-08T19:13:08.919Z,44.12
2017-06-08T19:14:08.152Z,43.21
2017-06-08T19:15:07.936Z,43.30
2017-06-08T19:20:08.650Z,45.73
2017-06-08T19:21:14.762Z,45.35
2017-06-08T19:24:08.254Z,45.23
2017-06-08T19:26:09.231Z,46.30
2017-06-08T19:31:11.349Z,47.08
2017-06-08T19:33:13.826Z,47.04
2017-06-08T19:34:08.692Z,48.28
2017-06-08T19:35:09.283Z,47.31
2017-06-08T19:36:07.852Z,47.64
2017-06-08T19:37:07.570Z,47.90
2017-06-08T19:38:08.138Z,46.78
2017-06-08T19:39:08.910Z,47.57
2017-06-08T19:40:08.576Z,47.76
2017-06-08T19:41:09.321Z,47.19
2017-06-08T19:42:08.929Z,47.58
2017-06-08T19:43:07.495Z,48.16
2017-06-08T19:44:08.083Z,49.71
2017-06-08T19:45:07.694Z,48.18
2017-06-08T19:46:08.374Z,48.36
2017-06-08T19:47:08.051Z,48.86
2017-06-08T19:48:08.761Z,49.61
2017-06-08T19:49:08.383Z,49.74
2017-06-08T19:52:08.575Z,49.08
2017-06-08T19:54:09.762Z,49.23
2017-06-08T20:14:08.676Z,53.26
2017-06-08T20:19:09.092Z,53.86
2017-06-08T20:20:08.799Z,54.64
2017-06-08T20:21:09.707Z,53.98
2017-06-08T20:23:09.278Z,54.62
2017-06-08T20:26:09.226Z,54.69
2017-06-08T20:30:08.751Z,56.29
2017-06-08T20:34:07.722Z,56.50
2017-06-08T20:36:07.790Z,56.02
2017-06-08T20:37:07.851Z,56.94
2017-06-08T20:38:08.158Z,56.48
2017-06-08T20:39:13.438Z,56.38
2017-06-08T20:40:07.463Z,56.67
2017-06-08T20:45:08.385Z,56.95
2017-06-08T20:48:08.257Z,56.34
2017-06-08T20:49:07.965Z,57.50
2017-06-08T20:51:08.336Z,58.54
2017-06-08T20:53:07.703Z,56.70
2017-06-08T20:58:08.333Z,58.07
2017-06-08T21:00:08.144Z,58.12
2017-06-08T21:03:07.994Z,58.43
2017-06-08T21:04:09.268Z,58.11
2017-06-08T21:06:09.060Z,58.09